Skip Navigation Links Skip Navigation Links

Current Weather

Culiacan Apt, Culiacan, Sin., Mexico

For information only: do not use for flight planning or navigation.
Latest weather
Observation time Thursday, December 3, 2020 10:40 PM CST
Local time Friday, December 4, 2020 1:51 AM CST
Flight conditions Visual Meteorological Conditions
Winds
Wind direction West-Northwest (300°)
Wind speed 6 mph
Visibility 10 mi.
Sky condition
Ceiling unlimited
Sky clear
Temperature 66°F
Dewpoint 48°F
Altimeter 29.93 in.Hg
Derived measurements
Relative humidity 52%
Density altitude 624 ft.
METAR MMCL 040440Z 30005KT 10SM SKC 19/09 A2993 RMK HZY

Settings

Location code

InnerDrive.Weather 4.0.6770.0 Release CLR 4.0.30319.42000
Copyright ©2018 Inner Drive Technology. All rights reserved. Portions Copyright ©1986-2018 David Braverman.

Find weather

Site navigation


Skip Navigation Links

Place info

Page info

PayPal - The safer, easier way to pay online!

Return home.

Copyright ©2020 Inner Drive Technology. Purveyors of fine, hand-crafted computer software. Page printed 2020-12-04T07:51:06 UTC.